createdAt,value
2023-02-16T00:01:30.330Z,93.56
2023-02-16T00:04:13.480Z,93.88
2023-02-16T00:06:45.877Z,93.95
2023-02-16T00:09:18.719Z,93.95
2023-02-16T00:12:11.836Z,94.05
2023-02-16T00:14:43.935Z,93.89
2023-02-16T00:17:15.962Z,94.06
2023-02-16T00:19:47.975Z,93.94
2023-02-16T00:22:19.960Z,93.89
2023-02-16T00:24:52.306Z,94.18
2023-02-16T00:27:24.275Z,94.03
2023-02-16T00:29:56.396Z,94.05
2023-02-16T00:32:28.539Z,94.08
2023-02-16T00:35:01.127Z,94.12
2023-02-16T00:37:33.077Z,94.48
2023-02-16T00:40:05.591Z,94.30
2023-02-16T00:42:38.311Z,94.54
2023-02-16T00:45:21.685Z,94.40
2023-02-16T00:47:54.987Z,94.37
2023-02-16T00:50:35.331Z,94.22
2023-02-16T00:53:07.318Z,94.15
2023-02-16T00:55:42.042Z,94.25
2023-02-16T00:58:26.168Z,94.09
2023-02-16T01:01:08.913Z,94.14
2023-02-16T01:03:41.422Z,94.28
2023-02-16T01:06:31.796Z,93.77
2023-02-16T01:09:35.138Z,93.62
2023-02-16T01:12:17.353Z,93.47
2023-02-16T01:14:53.861Z,93.48
2023-02-16T01:17:25.923Z,93.38
2023-02-16T01:19:57.928Z,93.62
2023-02-16T01:22:33.494Z,93.42
2023-02-16T01:25:05.966Z,93.17
2023-02-16T01:27:39.158Z,93.19
2023-02-16T01:30:21.960Z,93.24
2023-02-16T01:32:54.101Z,93.18
2023-02-16T01:35:33.174Z,93.35
2023-02-16T01:38:05.228Z,93.18
2023-02-16T01:40:57.874Z,93.00
2023-02-16T01:43:46.983Z,93.19
2023-02-16T01:46:25.902Z,93.07
2023-02-16T01:48:57.844Z,93.05
2023-02-16T01:51:50.624Z,92.93
2023-02-16T01:54:31.799Z,92.99
2023-02-16T01:57:05.816Z,92.79
2023-02-16T01:59:44.062Z,92.55
2023-02-16T02:02:32.859Z,93.35
2023-02-16T02:05:37.096Z,93.89
2023-02-16T02:08:19.252Z,94.04
2023-02-16T02:11:14.395Z,93.70
2023-02-16T02:13:55.190Z,94.14
2023-02-16T02:16:28.832Z,93.58
2023-02-16T02:19:00.998Z,94.11
2023-02-16T02:22:16.776Z,93.98
2023-02-16T02:24:57.203Z,94.02
2023-02-16T02:27:34.450Z,94.25
2023-02-16T02:30:27.811Z,94.19
2023-02-16T02:33:32.867Z,94.30
2023-02-16T02:36:40.532Z,94.42
2023-02-16T02:39:31.289Z,94.22
2023-02-16T02:42:34.127Z,94.26
2023-02-16T02:45:23.347Z,94.61
2023-02-16T02:47:55.348Z,94.52
2023-02-16T02:51:12.274Z,94.79
2023-02-16T02:54:16.280Z,94.57
2023-02-16T02:57:45.174Z,94.74
2023-02-16T03:00:41.819Z,94.93
2023-02-16T03:03:20.860Z,94.93
2023-02-16T03:06:13.944Z,94.88
2023-02-16T03:08:51.993Z,95.10
2023-02-16T03:11:48.288Z,94.88
2023-02-16T03:14:31.278Z,94.96
2023-02-16T03:17:35.577Z,95.41
2023-02-16T03:20:31.619Z,95.41
2023-02-16T03:23:24.584Z,95.03
2023-02-16T03:26:15.431Z,95.47
2023-02-16T03:29:06.743Z,95.84
2023-02-16T03:31:40.294Z,95.83
2023-02-16T03:34:12.906Z,95.53
2023-02-16T03:36:52.913Z,95.46
2023-02-16T03:39:27.936Z,95.28
2023-02-16T03:41:59.933Z,95.42
2023-02-16T03:44:31.996Z,95.12
2023-02-16T03:47:04.025Z,95.04
2023-02-16T03:49:35.965Z,94.63
2023-02-16T03:52:07.940Z,94.50
2023-02-16T03:54:39.928Z,94.61
2023-02-16T03:57:11.861Z,94.85
2023-02-16T03:59:43.898Z,95.14
2023-02-16T04:02:15.977Z,95.17
2023-02-16T04:04:48.052Z,94.85
2023-02-16T04:07:20.134Z,94.91
2023-02-16T04:09:52.084Z,94.93
2023-02-16T04:12:36.355Z,94.97
2023-02-16T04:15:12.814Z,94.89
2023-02-16T04:17:45.314Z,94.96
2023-02-16T04:20:20.709Z,94.91
2023-02-16T04:22:53.538Z,95.27
2023-02-16T04:25:26.237Z,95.48
2023-02-16T04:27:58.374Z,95.34
2023-02-16T04:30:32.486Z,95.48
2023-02-16T04:33:04.688Z,95.23
2023-02-16T04:35:36.693Z,95.30
2023-02-16T04:38:08.758Z,95.50
2023-02-16T04:40:40.833Z,95.60
2023-02-16T04:43:12.804Z,95.69
2023-02-16T04:45:44.806Z,95.54
2023-02-16T04:48:16.757Z,95.30
2023-02-16T04:50:48.757Z,95.24
2023-02-16T04:53:20.745Z,95.04
2023-02-16T04:55:52.736Z,95.34
2023-02-16T04:58:24.823Z,95.25
2023-02-16T05:00:56.781Z,95.27
2023-02-16T05:03:28.942Z,95.15
2023-02-16T05:06:01.162Z,95.00
2023-02-16T05:08:33.143Z,95.16
2023-02-16T05:11:23.840Z,95.46
2023-02-16T05:14:18.805Z,95.52
2023-02-16T05:16:51.152Z,95.79
2023-02-16T05:19:23.160Z,95.78
2023-02-16T05:21:55.159Z,95.75
2023-02-16T05:24:28.540Z,95.85
2023-02-16T05:27:02.109Z,96.10
2023-02-16T05:29:34.727Z,96.26
2023-02-16T05:32:06.821Z,96.11
2023-02-16T05:34:38.959Z,95.81
2023-02-16T05:37:12.161Z,95.94
2023-02-16T05:39:44.831Z,95.99
2023-02-16T05:42:16.833Z,95.98
2023-02-16T05:44:48.967Z,96.11
2023-02-16T05:47:20.950Z,96.13
2023-02-16T05:49:52.942Z,96.21
2023-02-16T05:52:24.887Z,95.93
2023-02-16T05:54:56.857Z,95.36
2023-02-16T05:57:28.909Z,95.30
2023-02-16T06:00:01.257Z,95.05
2023-02-16T06:02:33.279Z,94.26
2023-02-16T06:05:05.589Z,94.28
2023-02-16T06:07:37.546Z,94.19
2023-02-16T06:10:10.094Z,93.81
2023-02-16T06:12:44.602Z,94.30
2023-02-16T06:15:18.062Z,94.53
2023-02-16T06:17:51.467Z,94.35
2023-02-16T06:20:23.450Z,94.04
2023-02-16T06:22:55.474Z,93.85
2023-02-16T06:25:27.524Z,93.40
2023-02-16T06:27:59.562Z,93.82
2023-02-16T06:30:31.806Z,93.97
2023-02-16T06:33:05.747Z,94.06
2023-02-16T06:35:37.730Z,93.94
2023-02-16T06:38:09.857Z,93.94
2023-02-16T06:40:41.878Z,93.80
2023-02-16T06:43:14.285Z,93.82
2023-02-16T06:45:47.273Z,93.61
2023-02-16T06:48:19.449Z,93.58
2023-02-16T06:50:52.083Z,93.44
2023-02-16T06:53:25.520Z,93.28
2023-02-16T06:55:57.609Z,93.43
2023-02-16T06:58:29.637Z,93.26
2023-02-16T07:01:01.669Z,93.25
2023-02-16T07:03:34.050Z,93.32
2023-02-16T07:06:07.052Z,93.58
2023-02-16T07:08:39.068Z,93.46
2023-02-16T07:11:11.506Z,93.31
2023-02-16T07:13:44.009Z,93.21
2023-02-16T07:16:16.535Z,93.08
2023-02-16T07:18:49.005Z,92.54
2023-02-16T07:21:21.048Z,92.61
2023-02-16T07:23:53.094Z,92.05
2023-02-16T07:26:25.079Z,92.50
2023-02-16T07:28:57.018Z,92.03
2023-02-16T07:31:29.173Z,91.90
2023-02-16T07:34:01.373Z,91.84
2023-02-16T07:36:33.547Z,91.87
2023-02-16T07:39:05.805Z,92.18
2023-02-16T07:41:37.835Z,92.83
2023-02-16T07:44:09.911Z,92.30
2023-02-16T07:46:41.872Z,92.50
2023-02-16T07:49:13.837Z,93.01
2023-02-16T07:51:45.892Z,93.45
2023-02-16T07:54:17.828Z,93.48
2023-02-16T07:56:49.840Z,93.07
2023-02-16T07:59:21.899Z,93.45
2023-02-16T08:01:54.009Z,93.13
2023-02-16T08:04:26.317Z,92.39
2023-02-16T08:06:58.463Z,92.46
2023-02-16T08:09:30.518Z,91.75
2023-02-16T08:12:02.699Z,91.47
2023-02-16T08:14:34.778Z,90.28
2023-02-16T08:17:08.129Z,90.36
2023-02-16T08:19:40.826Z,90.63
2023-02-16T08:22:12.852Z,89.81
2023-02-16T08:24:45.048Z,89.86
2023-02-16T08:27:17.233Z,89.93
2023-02-16T08:29:49.278Z,89.55
2023-02-16T08:32:21.414Z,88.94
2023-02-16T08:34:53.532Z,88.48
2023-02-16T08:37:25.555Z,88.47
2023-02-16T08:40:00.770Z,89.08
2023-02-16T08:42:32.998Z,89.38
2023-02-16T08:45:07.477Z,89.18
2023-02-16T08:47:39.515Z,89.61
2023-02-16T08:50:11.693Z,89.96
2023-02-16T08:52:43.721Z,89.70
2023-02-16T08:55:15.789Z,89.05
2023-02-16T08:57:48.137Z,89.43
2023-02-16T09:00:35.846Z,89.10
2023-02-16T09:03:07.988Z,88.67
2023-02-16T09:05:40.531Z,87.74
2023-02-16T09:08:12.923Z,88.16
2023-02-16T09:10:45.061Z,86.90
2023-02-16T09:13:17.064Z,87.07
2023-02-16T09:15:49.594Z,87.00
2023-02-16T09:18:21.696Z,86.01
2023-02-16T09:20:53.858Z,85.87
2023-02-16T09:23:26.118Z,85.04
2023-02-16T09:26:02.129Z,85.70
2023-02-16T09:28:36.366Z,85.13
2023-02-16T09:31:25.559Z,85.12
2023-02-16T09:34:17.045Z,84.80
2023-02-16T09:36:50.372Z,84.96
2023-02-16T09:39:22.935Z,84.50
2023-02-16T09:42:28.446Z,83.46
2023-02-16T09:45:14.281Z,82.25
2023-02-16T09:47:49.855Z,81.94
2023-02-16T09:50:50.715Z,82.61
2023-02-16T09:53:39.623Z,83.14
2023-02-16T09:56:28.189Z,83.52
2023-02-16T09:59:25.806Z,82.47
2023-02-16T10:02:32.578Z,80.35
2023-02-16T10:05:08.562Z,80.97
2023-02-16T10:08:09.513Z,79.57
2023-02-16T10:10:57.131Z,78.77
2023-02-16T10:13:47.293Z,78.38
2023-02-16T10:16:28.574Z,77.24
2023-02-16T10:19:09.476Z,76.95
2023-02-16T10:21:48.525Z,75.73
2023-02-16T10:24:20.954Z,74.58
2023-02-16T10:27:10.060Z,75.78
2023-02-16T10:29:42.820Z,76.45
2023-02-16T10:32:37.283Z,79.29
2023-02-16T10:35:15.417Z,78.95
2023-02-16T10:38:09.379Z,78.90
2023-02-16T10:41:00.988Z,79.47
2023-02-16T10:44:01.763Z,78.82
2023-02-16T10:46:44.366Z,80.26
2023-02-16T10:49:18.020Z,79.12
2023-02-16T10:51:52.367Z,79.00
2023-02-16T10:54:31.898Z,79.14
2023-02-16T10:57:20.560Z,78.61
2023-02-16T10:59:54.897Z,76.97
2023-02-16T11:02:41.680Z,77.29
2023-02-16T11:05:39.408Z,76.64
2023-02-16T11:08:12.969Z,76.87
2023-02-16T11:10:52.699Z,77.08
2023-02-16T11:13:34.299Z,77.41
2023-02-16T11:16:21.133Z,77.83
2023-02-16T11:19:13.553Z,79.64
2023-02-16T11:21:52.151Z,79.44
2023-02-16T11:24:32.089Z,78.99
2023-02-16T11:27:19.600Z,79.10
2023-02-16T11:29:51.712Z,78.81
2023-02-16T11:32:24.440Z,77.78
2023-02-16T11:34:57.706Z,77.32
2023-02-16T11:37:34.147Z,76.78
2023-02-16T11:40:21.659Z,77.44
2023-02-16T11:42:59.863Z,76.76
2023-02-16T11:45:35.599Z,77.53
2023-02-16T11:48:32.687Z,78.33
2023-02-16T11:51:09.262Z,77.88
2023-02-16T11:53:44.532Z,78.02
2023-02-16T11:56:29.847Z,77.53
2023-02-16T11:59:14.964Z,78.46
2023-02-16T12:02:17.437Z,78.29
2023-02-16T12:05:26.294Z,80.13
2023-02-16T12:08:58.335Z,80.62
2023-02-16T12:11:55.528Z,80.88
2023-02-16T12:15:26.585Z,81.21
2023-02-16T12:18:20.657Z,82.42
2023-02-16T12:21:45.637Z,85.11
2023-02-16T12:24:47.873Z,87.42
2023-02-16T12:27:41.958Z,87.94
2023-02-16T12:31:00.506Z,89.42
2023-02-16T12:33:57.675Z,90.63
2023-02-16T12:37:04.949Z,91.17
2023-02-16T12:39:46.296Z,92.48
2023-02-16T12:42:46.988Z,92.98
2023-02-16T12:45:28.250Z,92.86
2023-02-16T12:48:11.163Z,92.61
2023-02-16T12:50:46.261Z,92.91
2023-02-16T12:53:48.254Z,93.33
2023-02-16T12:56:27.614Z,93.44
2023-02-16T12:59:27.129Z,95.12
2023-02-16T13:02:01.924Z,96.45
2023-02-16T13:04:49.155Z,97.41
2023-02-16T13:07:38.482Z,98.65
2023-02-16T13:10:47.051Z,98.92
2023-02-16T13:13:25.564Z,100.00
2023-02-16T13:16:30.411Z,100.00
2023-02-16T13:19:03.284Z,100.00
2023-02-16T13:21:51.272Z,100.00
2023-02-16T13:25:08.029Z,98.26
2023-02-16T13:28:11.193Z,98.11
2023-02-16T13:31:01.739Z,96.44
2023-02-16T13:33:58.365Z,97.05
2023-02-16T13:37:25.529Z,99.35
2023-02-16T13:40:23.232Z,99.63
2023-02-16T13:43:01.352Z,100.00
2023-02-16T13:45:40.599Z,100.00
2023-02-16T13:48:48.237Z,100.00
2023-02-16T13:51:24.200Z,100.00
2023-02-16T13:53:58.701Z,100.00
2023-02-16T13:56:33.294Z,100.00
2023-02-16T13:59:17.394Z,100.00
2023-02-16T14:01:53.746Z,100.00
2023-02-16T14:04:25.670Z,100.00
2023-02-16T14:07:03.798Z,100.00
2023-02-16T14:09:38.556Z,100.00
2023-02-16T14:12:16.848Z,100.00
2023-02-16T14:14:51.835Z,100.00
2023-02-16T14:17:31.218Z,100.00
2023-02-16T14:20:09.321Z,100.00
2023-02-16T14:22:51.206Z,100.00
2023-02-16T14:25:23.120Z,100.00
2023-02-16T14:27:59.284Z,100.00
2023-02-16T14:30:35.794Z,100.00
2023-02-16T14:33:22.817Z,100.00
2023-02-16T14:36:00.569Z,100.00
2023-02-16T14:38:41.557Z,100.00
2023-02-16T14:41:35.568Z,100.00
2023-02-16T14:44:07.479Z,100.00
2023-02-16T14:47:22.087Z,100.00
2023-02-16T14:50:30.816Z,100.00
2023-02-16T14:53:28.021Z,100.00
2023-02-16T14:56:14.499Z,100.00
2023-02-16T14:59:07.073Z,100.00
2023-02-16T15:01:42.243Z,100.00
2023-02-16T15:04:32.158Z,100.00
2023-02-16T15:07:05.552Z,100.00
2023-02-16T15:09:42.706Z,100.00
2023-02-16T15:12:21.726Z,100.00
2023-02-16T15:15:04.140Z,100.00
2023-02-16T15:17:45.659Z,100.00
2023-02-16T15:20:24.966Z,100.00
2023-02-16T15:23:02.368Z,100.00
2023-02-16T15:25:41.100Z,100.00
2023-02-16T15:28:26.057Z,100.00
2023-02-16T15:31:07.559Z,100.00
2023-02-16T15:33:54.677Z,100.00
2023-02-16T15:36:43.533Z,100.00
2023-02-16T15:39:41.309Z,100.00
2023-02-16T15:42:29.133Z,100.00
2023-02-16T15:45:01.160Z,100.00
2023-02-16T15:47:34.076Z,100.00
2023-02-16T15:50:14.383Z,100.00
2023-02-16T15:52:46.521Z,100.00
2023-02-16T15:55:18.741Z,100.00
2023-02-16T15:57:51.326Z,100.00
2023-02-16T16:00:25.096Z,100.00
2023-02-16T16:03:00.830Z,100.00
2023-02-16T16:05:42.048Z,100.00
2023-02-16T16:08:17.502Z,100.00
2023-02-16T16:10:49.761Z,100.00
2023-02-16T16:13:26.919Z,100.00
2023-02-16T16:16:02.247Z,100.00
2023-02-16T16:18:50.766Z,100.00
2023-02-16T16:21:34.349Z,100.00
2023-02-16T16:24:10.028Z,100.00
2023-02-16T16:26:56.806Z,100.00
2023-02-16T16:29:47.618Z,100.00
2023-02-16T16:32:28.902Z,100.00
2023-02-16T16:35:01.017Z,100.00
2023-02-16T16:37:37.417Z,100.00
2023-02-16T16:40:18.817Z,100.00
2023-02-16T16:43:28.524Z,100.00
2023-02-16T16:46:30.439Z,100.00
2023-02-16T16:49:06.363Z,100.00
2023-02-16T16:51:44.091Z,100.00
2023-02-16T16:54:35.879Z,100.00
2023-02-16T16:57:17.498Z,100.00
2023-02-16T16:59:49.475Z,100.00
2023-02-16T17:02:21.426Z,100.00
2023-02-16T17:04:53.424Z,100.00
2023-02-16T17:07:25.417Z,100.00
2023-02-16T17:09:57.803Z,100.00
2023-02-16T17:12:30.099Z,100.00
2023-02-16T17:15:03.276Z,100.00
2023-02-16T17:17:35.553Z,100.00
2023-02-16T17:20:14.909Z,100.00
2023-02-16T17:22:47.212Z,100.00
2023-02-16T17:25:19.728Z,100.00
2023-02-16T17:27:51.861Z,100.00
2023-02-16T17:30:24.136Z,100.00
2023-02-16T17:32:56.190Z,100.00
2023-02-16T17:35:28.852Z,100.00
2023-02-16T17:38:19.601Z,100.00
2023-02-16T17:40:54.513Z,100.00
2023-02-16T17:43:27.628Z,100.00
2023-02-16T17:46:04.756Z,100.00
2023-02-16T17:48:38.228Z,100.00
2023-02-16T17:51:17.263Z,100.00
2023-02-16T17:53:50.520Z,100.00
2023-02-16T17:56:25.100Z,100.00
2023-02-16T17:58:57.267Z,100.00
2023-02-16T18:01:30.030Z,100.00
2023-02-16T18:04:04.183Z,100.00
2023-02-16T18:06:36.919Z,100.00
2023-02-16T18:09:16.067Z,100.00
2023-02-16T18:11:48.214Z,100.00
2023-02-16T18:14:20.338Z,100.00
2023-02-16T18:16:53.106Z,100.00
2023-02-16T18:19:26.668Z,100.00
2023-02-16T18:21:58.716Z,100.00
2023-02-16T18:24:31.655Z,100.00
2023-02-16T18:27:03.834Z,100.00
2023-02-16T18:29:35.883Z,100.00
2023-02-16T18:32:08.441Z,100.00
2023-02-16T18:34:40.706Z,100.00
2023-02-16T18:37:12.736Z,100.00
2023-02-16T18:39:44.892Z,100.00
2023-02-16T18:42:17.181Z,100.00
2023-02-16T18:44:50.756Z,100.00
2023-02-16T18:47:22.875Z,100.00
2023-02-16T18:49:56.417Z,100.00
2023-02-16T18:52:28.475Z,100.00
2023-02-16T18:55:00.581Z,100.00
2023-02-16T18:57:32.620Z,100.00
2023-02-16T19:00:06.925Z,100.00
2023-02-16T19:02:41.062Z,100.00
2023-02-16T19:05:13.244Z,100.00
2023-02-16T19:07:45.230Z,100.00
2023-02-16T19:10:19.079Z,100.00
2023-02-16T19:12:51.590Z,100.00
2023-02-16T19:15:23.851Z,100.00
2023-02-16T19:17:55.872Z,100.00
2023-02-16T19:20:29.731Z,100.00
2023-02-16T19:23:01.746Z,100.00
2023-02-16T19:25:33.714Z,100.00
2023-02-16T19:28:05.858Z,100.00
2023-02-16T19:30:38.076Z,100.00
2023-02-16T19:33:10.115Z,100.00
2023-02-16T19:35:42.163Z,100.00
2023-02-16T19:38:15.461Z,100.00
2023-02-16T19:40:48.348Z,100.00
2023-02-16T19:43:21.327Z,100.00
2023-02-16T19:45:53.500Z,100.00
2023-02-16T19:48:25.500Z,100.00
2023-02-16T19:50:59.532Z,100.00
2023-02-16T19:53:32.678Z,100.00
2023-02-16T19:56:07.634Z,100.00
2023-02-16T19:58:39.970Z,100.00
2023-02-16T20:01:24.466Z,100.00
2023-02-16T20:03:58.153Z,100.00
2023-02-16T20:06:32.997Z,100.00
2023-02-16T20:09:05.700Z,100.00
2023-02-16T20:11:39.665Z,100.00
2023-02-16T20:14:12.565Z,100.00
2023-02-16T20:16:44.662Z,100.00
2023-02-16T20:19:16.650Z,100.00
2023-02-16T20:21:48.683Z,100.00
2023-02-16T20:24:20.864Z,100.00
2023-02-16T20:26:52.906Z,100.00
2023-02-16T20:29:25.192Z,100.00
2023-02-16T20:31:58.745Z,100.00
2023-02-16T20:34:32.319Z,100.00
2023-02-16T20:37:04.491Z,100.00
2023-02-16T20:39:36.532Z,100.00
2023-02-16T20:42:08.913Z,100.00
2023-02-16T20:44:43.547Z,100.00
2023-02-16T20:47:18.891Z,100.00
2023-02-16T20:50:00.634Z,100.00
2023-02-16T20:52:32.656Z,100.00
2023-02-16T20:55:04.842Z,100.00
2023-02-16T20:57:37.692Z,100.00
2023-02-16T21:00:17.223Z,100.00
2023-02-16T21:02:53.082Z,100.00
2023-02-16T21:05:25.150Z,100.00
2023-02-16T21:07:57.325Z,100.00
2023-02-16T21:10:29.382Z,100.00
2023-02-16T21:13:01.411Z,100.00
2023-02-16T21:15:36.704Z,100.00
2023-02-16T21:18:08.772Z,100.00
2023-02-16T21:20:41.108Z,100.00
2023-02-16T21:23:14.630Z,100.00
2023-02-16T21:25:46.896Z,100.00
2023-02-16T21:28:21.425Z,100.00
2023-02-16T21:30:53.993Z,100.00
2023-02-16T21:33:26.191Z,100.00
2023-02-16T21:36:38.938Z,100.00
2023-02-16T21:39:13.045Z,100.00
2023-02-16T21:41:45.182Z,100.00
2023-02-16T21:44:18.174Z,100.00
2023-02-16T21:46:59.298Z,100.00
2023-02-16T21:49:31.687Z,100.00
2023-02-16T21:52:03.897Z,100.00
2023-02-16T21:54:54.411Z,100.00
2023-02-16T21:57:26.461Z,100.00
2023-02-16T21:59:58.494Z,100.00
2023-02-16T22:02:30.461Z,100.00
2023-02-16T22:05:02.448Z,100.00
2023-02-16T22:07:34.471Z,100.00
2023-02-16T22:10:07.479Z,100.00
2023-02-16T22:12:39.489Z,100.00
2023-02-16T22:15:11.478Z,100.00
2023-02-16T22:17:43.608Z,100.00
2023-02-16T22:20:17.164Z,100.00
2023-02-16T22:22:52.583Z,100.00
2023-02-16T22:25:24.564Z,100.00
2023-02-16T22:27:56.602Z,100.00
2023-02-16T22:30:28.730Z,100.00
2023-02-16T22:33:00.736Z,100.00
2023-02-16T22:35:33.840Z,100.00
2023-02-16T22:38:05.956Z,100.00
2023-02-16T22:40:38.264Z,100.00
2023-02-16T22:43:10.395Z,100.00
2023-02-16T22:45:42.472Z,100.00
2023-02-16T22:48:14.523Z,100.00
2023-02-16T22:51:01.389Z,100.00
2023-02-16T22:53:34.530Z,100.00
2023-02-16T22:56:09.820Z,100.00
2023-02-16T22:58:42.047Z,100.00
2023-02-16T23:01:20.268Z,100.00
2023-02-16T23:03:57.492Z,100.00
2023-02-16T23:06:36.622Z,100.00
2023-02-16T23:09:21.595Z,100.00
2023-02-16T23:11:53.637Z,100.00
2023-02-16T23:14:26.623Z,100.00
2023-02-16T23:16:59.447Z,100.00
2023-02-16T23:19:32.567Z,100.00
2023-02-16T23:22:04.538Z,100.00
2023-02-16T23:24:36.688Z,100.00
2023-02-16T23:27:08.759Z,100.00
2023-02-16T23:29:40.685Z,100.00
2023-02-16T23:32:12.645Z,100.00
2023-02-16T23:34:44.659Z,100.00
2023-02-16T23:37:16.702Z,100.00
2023-02-16T23:39:48.669Z,100.00
2023-02-16T23:42:21.528Z,100.00
2023-02-16T23:44:57.140Z,100.00
2023-02-16T23:47:29.284Z,100.00
2023-02-16T23:50:01.488Z,100.00
2023-02-16T23:52:36.370Z,100.00
2023-02-16T23:55:16.397Z,100.00
2023-02-16T23:57:48.375Z,100.00
